Boone County Airport
KHRO : now visible

Airfield :











YOU CAN JOIN US ON...

 
LOGIN :

Register | Disclaimer

   EN    FR    IT 

 









Legend :    VFR   Marginal VFR   IFR   Intensive IFR   Very Intensive IFR
Visi :
Ceiling :
>= 8 km
>= 3000ft
5 to 8 km
1000 to 3000 ft
1500m to 5 km
500 to 1000 ft
800 to 1500m
200 to 500 ft
< 800m
< 200 ft
Symbols :   Thunderstorms  Fog  Heavy snow  Heavy precipitations  Wind > 20 kt






- Airport Elevation : 1365 ft
- IATA code : HRO


KHRO - Boone County

CURRENT METAR :
  • 080953Z AUTO VRB03KT 10SM CLR 22/14 A2980 RMK AO2 SLP074 T02170144

EXPIRED METARs :
  • 080853Z AUTO 24005KT 10SM CLR 22/16 A2980 RMK AO2 SLP075 T02170156 56009
  • 080753Z AUTO 22004KT 10SM CLR 22/16 A2980 RMK AO2 SLP076 T02170161

TAF KHRO
Valid from the 08 at 06:00 until the 09 at 06:00 UTC


080520Z 0806/0906 VRB06KT P6SM FEW040
TEMPO 0808/0812 4SM BR BKN005
FM081500 19010KT P6SM SCT050 BKN250
FM090000 29006KT P6SM VCSH BKN035



MET'MAP, your aeronautical weather chart ! - Copyright ORBIFLY December 2007 - Disclaimer

ORBIFLY MET'MAP TEAM :

Programming & Development : Alexandra Zaïnal
Concept & original design : Baudouin d'Aumeries
Assistance for programming : Marc-Olivier Méhu
Technical & hardware support : Manuel Goepfert

Contact : metmap@orbifly.com




SOURCES & CREDITS :

   NOAA       Earth
Advisory